createdAt,value
2019-02-18T00:02:04.138Z,28.00
2019-02-18T00:04:34.618Z,28.23
2019-02-18T00:07:03.455Z,29.27
2019-02-18T00:09:32.356Z,30.00
2019-02-18T00:12:01.293Z,28.10
2019-02-18T00:14:30.291Z,27.27
2019-02-18T00:16:59.532Z,25.90
2019-02-18T00:19:29.494Z,28.33
2019-02-18T00:21:58.464Z,26.60
2019-02-18T00:24:27.903Z,27.73
2019-02-18T00:26:57.277Z,30.90
2019-02-18T00:29:26.816Z,30.83
2019-02-18T00:31:57.664Z,28.50
2019-02-18T00:34:29.807Z,29.50
2019-02-18T00:36:58.741Z,28.63
2019-02-18T00:39:28.035Z,32.50
2019-02-18T00:41:56.971Z,29.20
2019-02-18T00:44:25.861Z,29.57
2019-02-18T00:46:55.432Z,32.47
2019-02-18T00:49:26.144Z,30.27
2019-02-18T00:51:54.993Z,28.23
2019-02-18T00:54:25.438Z,27.70
2019-02-18T00:56:54.356Z,31.93
2019-02-18T00:59:23.415Z,28.03
2019-02-18T01:01:52.296Z,28.33
2019-02-18T01:04:24.655Z,29.63
2019-02-18T01:17:41.119Z,29.70
2019-02-18T01:20:10.720Z,29.37
2019-02-18T01:22:39.557Z,30.43
2019-02-18T01:25:10.150Z,27.80
2019-02-18T01:27:39.142Z,26.70
2019-02-18T01:30:10.910Z,29.53
2019-02-18T01:32:39.809Z,28.53
2019-02-18T01:35:09.363Z,28.13
2019-02-18T01:37:45.248Z,27.27
2019-02-18T01:40:11.690Z,25.30
2019-02-18T01:42:40.622Z,29.73
2019-02-18T01:45:11.141Z,26.33
2019-02-18T01:47:39.940Z,27.03
2019-02-18T01:50:13.613Z,27.00
2019-02-18T01:52:42.659Z,25.50
2019-02-18T01:55:12.717Z,28.90
2019-02-18T01:57:41.631Z,25.57
2019-02-18T02:00:13.193Z,29.57
2019-02-18T02:02:42.240Z,27.20
2019-02-18T02:05:12.968Z,25.20
2019-02-18T02:07:42.241Z,27.23
2019-02-18T02:10:12.717Z,27.47
2019-02-18T02:12:41.979Z,28.07
2019-02-18T02:15:20.229Z,27.70
2019-02-18T02:17:49.241Z,30.17
2019-02-18T02:20:18.054Z,28.50
2019-02-18T02:22:46.994Z,30.70
2019-02-18T02:25:16.151Z,28.57
2019-02-18T02:27:45.079Z,28.30
2019-02-18T02:30:13.998Z,25.63
2019-02-18T02:32:42.998Z,27.57
2019-02-18T02:35:12.293Z,28.37
2019-02-18T02:37:41.665Z,26.00
2019-02-18T02:40:10.660Z,26.57
2019-02-18T02:42:39.495Z,24.90
2019-02-18T02:45:08.494Z,25.03
2019-02-18T02:47:38.434Z,23.90
2019-02-18T02:50:08.133Z,28.07
2019-02-18T02:52:37.074Z,26.27
2019-02-18T02:55:06.049Z,24.27
2019-02-18T02:57:34.962Z,25.43
2019-02-18T03:00:05.465Z,27.30
2019-02-18T03:02:34.429Z,27.10
2019-02-18T03:05:03.730Z,26.80
2019-02-18T03:07:32.579Z,28.80
2019-02-18T03:10:01.387Z,26.13
2019-02-18T03:12:30.282Z,29.50
2019-02-18T03:14:59.303Z,25.87
2019-02-18T03:17:28.120Z,26.03
2019-02-18T03:19:57.061Z,25.67
2019-02-18T03:22:26.656Z,24.87
2019-02-18T03:25:23.809Z,23.63
2019-02-18T03:28:19.363Z,23.97
2019-02-18T03:31:09.313Z,24.57
2019-02-18T03:33:44.735Z,25.43
2019-02-18T03:36:13.545Z,23.60
2019-02-18T03:38:42.351Z,26.07
2019-02-18T03:41:11.953Z,26.10
2019-02-18T03:43:41.154Z,25.83
2019-02-18T03:46:10.222Z,28.23
2019-02-18T03:48:39.100Z,23.43
2019-02-18T03:51:08.073Z,23.53
2019-02-18T03:53:36.923Z,25.07
2019-02-18T03:56:05.851Z,24.53
2019-02-18T03:58:34.754Z,25.47
2019-02-18T04:01:03.733Z,25.10
2019-02-18T04:03:32.697Z,25.00
2019-02-18T04:06:01.500Z,23.97
2019-02-18T04:08:42.050Z,27.30
2019-02-18T04:11:01.489Z,23.20
2019-02-18T04:13:30.707Z,25.20
2019-02-18T04:15:59.853Z,23.57
2019-02-18T04:18:28.658Z,25.03
2019-02-18T04:20:57.554Z,22.17
2019-02-18T04:23:26.593Z,21.67
2019-02-18T04:25:56.036Z,23.97
2019-02-18T04:28:24.871Z,23.67
2019-02-18T04:30:54.148Z,23.37
2019-02-18T04:33:22.954Z,21.97
2019-02-18T04:35:51.782Z,24.37
2019-02-18T04:38:20.646Z,25.03
2019-02-18T04:40:49.467Z,22.33
2019-02-18T04:43:18.347Z,20.73
2019-02-18T04:45:47.411Z,21.03
2019-02-18T04:48:16.220Z,22.93
2019-02-18T04:50:45.058Z,21.43
2019-02-18T04:53:13.915Z,26.17
2019-02-18T04:55:43.145Z,23.53
2019-02-18T04:58:12.083Z,21.90
2019-02-18T05:00:41.232Z,23.37
2019-02-18T05:03:10.060Z,26.93
2019-02-18T05:05:38.977Z,22.77
2019-02-18T05:08:07.924Z,22.30
2019-02-18T05:10:36.822Z,21.97
2019-02-18T05:13:05.739Z,23.67
2019-02-18T05:15:34.775Z,22.33
2019-02-18T05:18:03.621Z,23.93
2019-02-18T05:20:32.403Z,22.67
2019-02-18T05:23:01.521Z,21.53
2019-02-18T05:25:30.496Z,23.47
2019-02-18T05:27:59.585Z,23.20
2019-02-18T05:30:29.551Z,21.17
2019-02-18T05:32:58.436Z,21.67
2019-02-18T05:35:27.367Z,23.17
2019-02-18T05:37:56.185Z,19.77
2019-02-18T05:40:25.050Z,20.80
2019-02-18T05:42:53.965Z,22.30
2019-02-18T05:45:24.216Z,23.13
2019-02-18T05:47:53.748Z,22.43
2019-02-18T05:50:22.843Z,21.93
2019-02-18T05:52:51.827Z,22.13
2019-02-18T05:55:21.145Z,22.43
2019-02-18T05:57:56.389Z,22.90
2019-02-18T06:00:25.331Z,24.30
2019-02-18T06:02:54.838Z,21.23
2019-02-18T06:05:23.893Z,25.33
2019-02-18T06:07:54.791Z,21.97
2019-02-18T06:10:23.749Z,23.37
2019-02-18T06:12:52.567Z,24.60
2019-02-18T06:15:21.447Z,24.77
2019-02-18T06:17:50.908Z,25.03
2019-02-18T06:20:19.917Z,24.17
2019-02-18T06:22:48.840Z,25.03
2019-02-18T06:25:17.870Z,24.30
2019-02-18T06:27:46.830Z,24.97
2019-02-18T06:30:15.640Z,27.13
2019-02-18T06:32:44.555Z,24.97
2019-02-18T06:35:14.640Z,25.33
2019-02-18T06:37:43.555Z,22.60
2019-02-18T06:40:12.642Z,22.77
2019-02-18T06:43:18.415Z,24.10
2019-02-18T06:45:53.467Z,25.07
2019-02-18T06:48:28.582Z,24.57
2019-02-18T06:51:00.935Z,25.23
2019-02-18T06:53:33.787Z,26.83
2019-02-18T06:56:03.025Z,21.33
2019-02-18T06:59:00.152Z,24.80
2019-02-18T07:01:51.188Z,25.33
2019-02-18T07:04:35.634Z,26.30
2019-02-18T07:07:12.897Z,22.00
2019-02-18T07:09:51.636Z,26.23
2019-02-18T07:12:32.311Z,22.63
2019-02-18T07:15:01.407Z,22.17
2019-02-18T07:17:30.552Z,23.77
2019-02-18T07:19:59.386Z,25.90
2019-02-18T07:22:29.683Z,26.77
2019-02-18T07:24:58.505Z,22.73
2019-02-18T07:27:31.928Z,26.07
2019-02-18T07:30:02.112Z,21.47
2019-02-18T07:32:30.917Z,24.30
2019-02-18T07:34:59.870Z,23.60
2019-02-18T07:37:28.683Z,27.20
2019-02-18T07:40:01.471Z,26.37
2019-02-18T07:42:34.697Z,29.10
2019-02-18T07:45:02.106Z,29.07
2019-02-18T07:47:31.204Z,32.80
2019-02-18T07:50:00.599Z,33.33
2019-02-18T07:52:29.837Z,29.37
2019-02-18T07:54:58.816Z,32.40
2019-02-18T07:57:28.089Z,32.67
2019-02-18T07:59:57.074Z,34.37
2019-02-18T08:02:26.703Z,27.97
2019-02-18T08:04:55.621Z,30.10
2019-02-18T08:07:24.672Z,36.30
2019-02-18T08:09:53.613Z,29.93
2019-02-18T08:12:23.052Z,30.90
2019-02-18T08:14:52.043Z,33.13
2019-02-18T08:17:21.090Z,33.00
2019-02-18T08:19:51.214Z,32.90
2019-02-18T08:22:20.082Z,32.10
2019-02-18T08:24:49.318Z,27.53
2019-02-18T08:27:18.149Z,27.43
2019-02-18T08:29:47.229Z,24.50
2019-02-18T08:32:16.059Z,28.83
2019-02-18T08:34:45.082Z,25.73
2019-02-18T08:37:14.475Z,25.40
2019-02-18T08:39:44.393Z,27.20
2019-02-18T08:42:13.935Z,27.10
2019-02-18T08:44:43.175Z,22.20
2019-02-18T08:47:12.677Z,30.03
2019-02-18T08:49:41.526Z,24.77
2019-02-18T08:52:11.154Z,26.43
2019-02-18T08:54:40.307Z,23.70
2019-02-18T08:57:09.679Z,28.27
2019-02-18T08:59:38.861Z,27.20
2019-02-18T09:02:09.238Z,28.30
2019-02-18T09:04:38.788Z,26.03
2019-02-18T09:07:07.674Z,26.00
2019-02-18T09:09:36.929Z,26.70
2019-02-18T09:12:06.125Z,27.80
2019-02-18T09:14:34.898Z,24.57
2019-02-18T09:17:05.611Z,23.50
2019-02-18T09:19:35.517Z,29.33
2019-02-18T09:22:23.738Z,24.33
2019-02-18T09:24:59.250Z,23.10
2019-02-18T09:27:28.086Z,25.03
2019-02-18T09:29:56.986Z,26.40
2019-02-18T09:32:25.899Z,28.10
2019-02-18T09:35:01.758Z,25.87
2019-02-18T09:37:26.003Z,27.93
2019-02-18T09:39:55.153Z,23.60
2019-02-18T09:42:26.502Z,23.10
2019-02-18T09:44:54.965Z,24.87
2019-02-18T09:47:24.147Z,23.33
2019-02-18T09:49:53.270Z,28.57
2019-02-18T09:52:22.358Z,23.83
2019-02-18T09:54:51.400Z,26.37
2019-02-18T09:57:20.458Z,27.60
2019-02-18T09:59:49.463Z,27.43
2019-02-18T10:02:18.482Z,26.53
2019-02-18T10:04:47.269Z,23.03
2019-02-18T10:07:16.121Z,21.70
2019-02-18T10:09:44.917Z,25.27
2019-02-18T10:12:18.241Z,28.20
2019-02-18T10:14:45.818Z,25.53
2019-02-18T10:17:14.663Z,25.63
2019-02-18T10:19:43.457Z,25.50
2019-02-18T10:22:12.273Z,22.30
2019-02-18T10:24:50.712Z,28.33
2019-02-18T10:27:12.134Z,29.03
2019-02-18T10:29:41.043Z,23.40
2019-02-18T10:32:10.405Z,24.13
2019-02-18T10:34:39.527Z,26.13
2019-02-18T10:37:09.954Z,32.73
2019-02-18T10:39:38.773Z,25.23
2019-02-18T10:42:08.049Z,24.63
2019-02-18T10:44:36.986Z,23.27
2019-02-18T10:47:08.074Z,26.03
2019-02-18T10:49:37.077Z,23.90
2019-02-18T10:52:06.881Z,25.13
2019-02-18T10:54:36.454Z,22.30
2019-02-18T10:57:05.767Z,21.87
2019-02-18T10:59:35.000Z,26.27
2019-02-18T11:02:04.276Z,20.90
2019-02-18T11:04:33.539Z,21.97
2019-02-18T11:07:02.565Z,21.23
2019-02-18T11:09:31.358Z,22.77
2019-02-18T11:12:00.189Z,20.70
2019-02-18T11:14:29.131Z,21.53
2019-02-18T11:16:58.342Z,21.23
2019-02-18T11:19:27.149Z,22.93
2019-02-18T11:21:56.435Z,43.13
2019-02-18T11:24:25.565Z,25.30
2019-02-18T11:26:54.990Z,22.47
2019-02-18T11:29:24.201Z,20.23
2019-02-18T11:31:53.577Z,18.93
2019-02-18T11:34:22.510Z,20.50
2019-02-18T11:36:51.562Z,23.83
2019-02-18T11:39:20.661Z,23.30
2019-02-18T11:41:49.518Z,19.90
2019-02-18T11:44:18.886Z,20.57
2019-02-18T11:46:47.740Z,20.17
2019-02-18T11:49:16.613Z,20.93
2019-02-18T11:51:45.439Z,22.27
2019-02-18T11:54:14.252Z,18.27
2019-02-18T11:56:43.570Z,24.33
2019-02-18T11:59:12.603Z,18.17
2019-02-18T12:01:41.850Z,20.10
2019-02-18T12:04:11.131Z,20.73
2019-02-18T12:06:41.657Z,20.77
2019-02-18T12:09:17.745Z,22.80
2019-02-18T12:11:45.715Z,20.33
2019-02-18T12:14:14.670Z,20.37
2019-02-18T12:16:43.557Z,20.43
2019-02-18T12:19:12.480Z,22.60
2019-02-18T12:21:41.296Z,21.73
2019-02-18T12:24:10.102Z,24.40
2019-02-18T12:26:39.105Z,22.23
2019-02-18T12:29:07.934Z,20.77
2019-02-18T12:31:36.769Z,20.53
2019-02-18T12:34:05.586Z,19.70
2019-02-18T12:36:37.867Z,24.57
2019-02-18T12:39:13.401Z,25.57
2019-02-18T12:41:48.681Z,24.27
2019-02-18T12:44:14.257Z,19.93
2019-02-18T12:46:43.119Z,25.60
2019-02-18T12:49:12.109Z,21.80
2019-02-18T12:51:42.680Z,23.77
2019-02-18T12:54:11.723Z,21.93
2019-02-18T12:56:41.253Z,21.80
2019-02-18T12:59:10.328Z,20.80
2019-02-18T13:01:39.853Z,25.70
2019-02-18T13:04:08.886Z,21.50
2019-02-18T13:06:37.914Z,23.83
2019-02-18T13:09:07.522Z,21.73
2019-02-18T13:11:36.784Z,22.60
2019-02-18T13:14:05.804Z,21.10
2019-02-18T13:16:35.478Z,20.30
2019-02-18T13:19:04.501Z,23.43
2019-02-18T13:21:33.607Z,23.30
2019-02-18T13:24:02.613Z,23.27
2019-02-18T13:26:31.516Z,23.17
2019-02-18T13:29:00.338Z,21.43
2019-02-18T13:31:29.232Z,23.27
2019-02-18T13:33:58.177Z,23.30
2019-02-18T13:36:28.755Z,25.00
2019-02-18T13:38:59.329Z,23.60
2019-02-18T13:41:28.515Z,22.57
2019-02-18T13:43:57.475Z,21.83
2019-02-18T13:46:27.579Z,22.93
2019-02-18T13:48:56.837Z,24.40
2019-02-18T13:51:25.734Z,23.73
2019-02-18T13:53:55.171Z,24.67
2019-02-18T13:56:24.470Z,24.83
2019-02-18T13:58:53.769Z,22.00
2019-02-18T14:01:23.063Z,25.07
2019-02-18T14:03:52.252Z,23.00
2019-02-18T14:06:21.126Z,26.13
2019-02-18T14:08:50.012Z,24.57
2019-02-18T14:11:18.904Z,22.67
2019-02-18T14:13:48.644Z,24.60
2019-02-18T14:16:17.877Z,20.50
2019-02-18T14:18:47.074Z,23.77
2019-02-18T14:21:16.379Z,22.27
2019-02-18T14:23:45.303Z,25.17
2019-02-18T14:26:14.354Z,22.93
2019-02-18T14:28:43.667Z,22.83
2019-02-18T14:31:12.683Z,24.37
2019-02-18T14:33:41.671Z,24.40
2019-02-18T14:36:11.091Z,24.50
2019-02-18T14:38:43.572Z,22.33
2019-02-18T14:41:15.306Z,22.13
2019-02-18T14:43:44.301Z,19.70
2019-02-18T14:46:19.663Z,24.13
2019-02-18T14:48:50.209Z,22.37
2019-02-18T14:51:19.725Z,22.13
2019-02-18T14:53:49.186Z,21.97
2019-02-18T14:56:18.347Z,21.33
2019-02-18T14:58:47.155Z,25.17
2019-02-18T15:01:16.646Z,22.17
2019-02-18T15:03:45.529Z,22.20
2019-02-18T15:06:15.557Z,21.80
2019-02-18T15:08:44.347Z,22.93
2019-02-18T15:11:13.468Z,24.77
2019-02-18T15:13:42.366Z,23.23
2019-02-18T15:16:11.689Z,27.20
2019-02-18T15:18:41.446Z,22.13
2019-02-18T15:21:11.019Z,21.83
2019-02-18T15:23:39.915Z,22.93
2019-02-18T15:26:09.216Z,23.23
2019-02-18T15:28:38.083Z,19.23
2019-02-18T15:31:08.958Z,25.57
2019-02-18T15:33:37.784Z,23.60
2019-02-18T15:36:06.774Z,24.77
2019-02-18T15:38:36.019Z,21.07
2019-02-18T15:41:05.196Z,20.13
2019-02-18T15:43:35.326Z,24.63
2019-02-18T15:46:04.857Z,23.60
2019-02-18T15:48:33.892Z,21.73
2019-02-18T15:51:02.777Z,23.70
2019-02-18T15:53:31.762Z,22.77
2019-02-18T15:56:00.869Z,23.10
2019-02-18T15:58:29.756Z,22.53
2019-02-18T16:00:59.392Z,22.67
2019-02-18T16:03:28.374Z,22.70
2019-02-18T16:05:58.334Z,23.90
2019-02-18T16:08:27.279Z,22.40
2019-02-18T16:10:56.106Z,25.50
2019-02-18T16:13:27.019Z,23.03
2019-02-18T16:15:56.130Z,19.93
2019-02-18T16:18:24.929Z,21.27
2019-02-18T16:20:53.730Z,20.93
2019-02-18T16:23:23.073Z,21.40
2019-02-18T16:25:52.670Z,21.37
2019-02-18T16:28:21.508Z,20.83
2019-02-18T16:30:50.482Z,20.03
2019-02-18T16:33:20.211Z,21.70
2019-02-18T16:35:50.459Z,19.57
2019-02-18T16:38:19.596Z,24.57
2019-02-18T16:40:49.524Z,26.87
2019-02-18T16:43:18.573Z,26.60
2019-02-18T16:45:49.468Z,23.37
2019-02-18T16:48:18.933Z,23.67
2019-02-18T16:50:48.146Z,23.40
2019-02-18T16:53:17.740Z,21.33
2019-02-18T16:55:47.154Z,21.13
2019-02-18T16:58:16.887Z,22.70
2019-02-18T17:00:45.888Z,20.33
2019-02-18T17:03:15.067Z,21.27
2019-02-18T17:05:44.006Z,23.30
2019-02-18T17:08:13.346Z,20.93
2019-02-18T17:10:44.671Z,20.37
2019-02-18T17:13:13.506Z,20.83
2019-02-18T17:15:42.502Z,19.80
2019-02-18T17:21:40.009Z,20.43
2019-02-18T17:24:08.828Z,25.07
2019-02-18T17:26:39.270Z,23.23
2019-02-18T17:29:08.685Z,20.37
2019-02-18T17:31:37.466Z,20.87
2019-02-18T17:34:07.139Z,19.33
2019-02-18T17:36:37.646Z,18.77
2019-02-18T17:39:07.808Z,19.80
2019-02-18T17:41:37.774Z,21.07
2019-02-18T17:44:06.676Z,21.13
2019-02-18T17:46:36.696Z,20.10
2019-02-18T17:49:05.650Z,19.47
2019-02-18T17:51:34.645Z,20.37
2019-02-18T17:54:04.735Z,16.50
2019-02-18T17:56:34.360Z,17.17
2019-02-18T17:59:03.414Z,19.70
2019-02-18T18:01:32.312Z,17.40
2019-02-18T18:04:01.375Z,20.30
2019-02-18T18:06:30.943Z,20.13
2019-02-18T18:09:00.827Z,20.27
2019-02-18T18:11:30.397Z,20.97
2019-02-18T18:13:59.338Z,19.93
2019-02-18T18:16:28.357Z,16.70
2019-02-18T18:18:57.316Z,16.70
2019-02-18T18:21:26.272Z,17.00
2019-02-18T18:23:55.507Z,16.40
2019-02-18T18:26:24.638Z,17.63
2019-02-18T18:28:54.309Z,18.40
2019-02-18T18:31:23.528Z,18.13
2019-02-18T18:33:53.080Z,20.03
2019-02-18T18:36:22.765Z,16.70
2019-02-18T18:38:53.278Z,17.93
2019-02-18T18:41:22.800Z,17.83
2019-02-18T18:43:51.902Z,20.67
2019-02-18T18:46:21.330Z,18.73
2019-02-18T18:48:51.168Z,19.27
2019-02-18T18:51:20.150Z,16.33
2019-02-18T18:53:50.018Z,16.37
2019-02-18T18:56:18.804Z,22.10
2019-02-18T18:58:48.254Z,19.37
2019-02-18T19:01:17.446Z,17.90
2019-02-18T19:03:52.506Z,20.00
2019-02-18T19:06:22.425Z,19.20
2019-02-18T19:08:51.202Z,19.73
2019-02-18T19:11:20.123Z,17.60
2019-02-18T19:13:49.398Z,20.83
2019-02-18T19:16:18.579Z,19.83
2019-02-18T19:18:47.547Z,20.67
2019-02-18T19:21:17.086Z,17.87
2019-02-18T19:23:46.317Z,17.80
2019-02-18T19:26:15.957Z,20.20
2019-02-18T19:28:46.588Z,25.77
2019-02-18T19:31:15.571Z,21.47
2019-02-18T19:33:45.372Z,23.03
2019-02-18T19:37:13.937Z,26.03
2019-02-18T19:40:38.952Z,28.50
2019-02-18T19:43:22.622Z,25.07
2019-02-18T19:45:51.659Z,24.40
2019-02-18T19:48:21.129Z,23.03
2019-02-18T19:50:51.484Z,27.10
2019-02-18T19:53:21.557Z,23.43
2019-02-18T19:55:50.484Z,23.17
2019-02-18T19:58:20.846Z,25.80
2019-02-18T20:00:50.018Z,29.50
2019-02-18T20:03:18.993Z,27.57
2019-02-18T20:05:47.861Z,25.10
2019-02-18T20:08:19.763Z,26.30
2019-02-18T20:10:49.187Z,26.90
2019-02-18T20:13:19.136Z,28.73
2019-02-18T20:15:47.984Z,26.07
2019-02-18T20:18:17.062Z,27.03
2019-02-18T20:20:46.729Z,27.20
2019-02-18T20:23:16.980Z,27.53
2019-02-18T20:25:45.884Z,28.13
2019-02-18T20:28:14.721Z,26.60
2019-02-18T20:30:49.784Z,29.60
2019-02-18T20:33:18.684Z,29.77
2019-02-18T20:35:47.989Z,31.87
2019-02-18T20:38:16.864Z,29.83
2019-02-18T20:40:46.349Z,30.10
2019-02-18T20:43:16.053Z,31.90
2019-02-18T20:45:45.354Z,26.43
2019-02-18T20:48:14.437Z,31.03
2019-02-18T20:50:43.642Z,30.17
2019-02-18T20:53:12.481Z,26.80
2019-02-18T20:55:43.037Z,32.73
2019-02-18T20:58:12.026Z,29.53
2019-02-18T21:00:40.996Z,25.60
2019-02-18T21:03:10.257Z,26.83
2019-02-18T21:05:40.432Z,25.13
2019-02-18T21:08:09.245Z,25.60
2019-02-18T21:10:39.868Z,26.17
2019-02-18T21:13:09.172Z,26.07
2019-02-18T21:15:38.445Z,29.23
2019-02-18T21:18:09.265Z,24.50
2019-02-18T21:20:38.741Z,27.23
2019-02-18T21:23:08.468Z,26.27
2019-02-18T21:25:37.646Z,25.80
2019-02-18T21:28:06.914Z,26.83
2019-02-18T21:30:36.005Z,25.60
2019-02-18T21:33:05.073Z,27.27
2019-02-18T21:35:34.089Z,24.93
2019-02-18T21:38:04.408Z,27.27
2019-02-18T21:40:33.291Z,25.77
2019-02-18T21:43:02.242Z,26.97
2019-02-18T21:45:31.387Z,28.30
2019-02-18T21:48:00.823Z,27.50
2019-02-18T21:50:29.878Z,25.50
2019-02-18T21:52:58.843Z,27.20
2019-02-18T21:55:27.884Z,26.00
2019-02-18T21:57:56.779Z,25.17
2019-02-18T22:00:27.011Z,24.87
2019-02-18T22:02:56.154Z,26.20
2019-02-18T22:05:27.020Z,26.53
2019-02-18T22:07:57.371Z,24.87
2019-02-18T22:10:26.953Z,26.47
2019-02-18T22:12:56.331Z,24.07
2019-02-18T22:15:27.600Z,38.20
2019-02-18T22:17:56.829Z,31.37
2019-02-18T22:20:25.968Z,29.23
2019-02-18T22:22:54.957Z,26.27
2019-02-18T22:25:25.049Z,29.03
2019-02-18T22:27:54.090Z,25.80
2019-02-18T22:30:22.929Z,25.03
2019-02-18T22:32:52.423Z,25.20
2019-02-18T22:35:21.425Z,25.63
2019-02-18T22:37:50.266Z,28.37
2019-02-18T22:40:20.023Z,30.97
2019-02-18T22:42:49.932Z,24.57
2019-02-18T22:45:18.884Z,24.03
2019-02-18T22:47:50.114Z,25.80
2019-02-18T22:50:19.248Z,24.80
2019-02-18T22:52:50.943Z,29.20
2019-02-18T22:55:20.068Z,25.10
2019-02-18T22:57:49.257Z,28.17
2019-02-18T23:01:02.065Z,26.03
2019-02-18T23:03:31.211Z,24.67
2019-02-18T23:06:00.292Z,23.90
2019-02-18T23:08:29.459Z,25.20
2019-02-18T23:10:59.083Z,27.47
2019-02-18T23:13:29.361Z,23.53
2019-02-18T23:15:58.384Z,25.20
2019-02-18T23:18:27.911Z,25.07
2019-02-18T23:20:57.898Z,29.00
2019-02-18T23:23:27.164Z,23.23
2019-02-18T23:25:55.990Z,23.37
2019-02-18T23:28:25.056Z,21.33
2019-02-18T23:30:53.955Z,24.67
2019-02-18T23:33:23.488Z,22.50
2019-02-18T23:35:52.538Z,25.03
2019-02-18T23:38:21.478Z,24.43
2019-02-18T23:40:50.342Z,24.87
2019-02-18T23:43:19.933Z,23.63
2019-02-18T23:45:48.845Z,23.10
2019-02-18T23:48:17.940Z,26.40
2019-02-18T23:50:46.777Z,23.53
2019-02-18T23:53:16.054Z,26.73
2019-02-18T23:55:45.215Z,23.80
2019-02-18T23:58:14.410Z,26.63
